sensor_id;sensor_type;location;lat;lon;timestamp;P1;durP1;ratioP1;P2;durP2;ratioP2
14373;SDS011;7270;49.004;12.066;2022-11-13T00:00:31;1.50;;;1.40;;
14373;SDS011;7270;49.004;12.066;2022-11-13T00:02:59;1.60;;;1.50;;
14373;SDS011;7270;49.004;12.066;2022-11-13T00:05:25;1.37;;;1.30;;
14373;SDS011;7270;49.004;12.066;2022-11-13T00:07:52;1.47;;;1.37;;
14373;SDS011;7270;49.004;12.066;2022-11-13T00:10:18;1.67;;;1.57;;
14373;SDS011;7270;49.004;12.066;2022-11-13T00:12:45;1.40;;;1.30;;
14373;SDS011;7270;49.004;12.066;2022-11-13T00:15:11;1.40;;;1.30;;
14373;SDS011;7270;49.004;12.066;2022-11-13T00:17:37;1.60;;;1.50;;
14373;SDS011;7270;49.004;12.066;2022-11-13T00:20:05;1.40;;;1.30;;
14373;SDS011;7270;49.004;12.066;2022-11-13T00:22:32;1.70;;;1.60;;
14373;SDS011;7270;49.004;12.066;2022-11-13T00:24:58;1.60;;;1.50;;
14373;SDS011;7270;49.004;12.066;2022-11-13T00:27:24;1.40;;;1.30;;
14373;SDS011;7270;49.004;12.066;2022-11-13T00:29:51;1.60;;;1.50;;
14373;SDS011;7270;49.004;12.066;2022-11-13T00:32:17;1.50;;;1.40;;
14373;SDS011;7270;49.004;12.066;2022-11-13T00:34:44;1.50;;;1.40;;
14373;SDS011;7270;49.004;12.066;2022-11-13T00:37:12;1.40;;;1.30;;
14373;SDS011;7270;49.004;12.066;2022-11-13T00:39:38;1.57;;;1.47;;
14373;SDS011;7270;49.004;12.066;2022-11-13T00:42:05;1.50;;;1.40;;
14373;SDS011;7270;49.004;12.066;2022-11-13T00:44:31;1.40;;;1.30;;
14373;SDS011;7270;49.004;12.066;2022-11-13T00:46:57;1.50;;;1.40;;
14373;SDS011;7270;49.004;12.066;2022-11-13T00:49:24;1.40;;;1.30;;
14373;SDS011;7270;49.004;12.066;2022-11-13T00:51:50;1.60;;;1.50;;
14373;SDS011;7270;49.004;12.066;2022-11-13T00:54:17;1.40;;;1.30;;
14373;SDS011;7270;49.004;12.066;2022-11-13T00:56:44;1.50;;;1.40;;
14373;SDS011;7270;49.004;12.066;2022-11-13T00:59:10;1.50;;;1.40;;
14373;SDS011;7270;49.004;12.066;2022-11-13T01:01:36;1.50;;;1.40;;
14373;SDS011;7270;49.004;12.066;2022-11-13T01:04:03;1.50;;;1.40;;
14373;SDS011;7270;49.004;12.066;2022-11-13T01:06:29;1.50;;;1.40;;
14373;SDS011;7270;49.004;12.066;2022-11-13T01:08:56;1.40;;;1.30;;
14373;SDS011;7270;49.004;12.066;2022-11-13T01:11:26;1.40;;;1.30;;
14373;SDS011;7270;49.004;12.066;2022-11-13T01:13:52;1.30;;;1.20;;
14373;SDS011;7270;49.004;12.066;2022-11-13T01:16:19;1.47;;;1.37;;
14373;SDS011;7270;49.004;12.066;2022-11-13T01:18:46;1.40;;;1.30;;
14373;SDS011;7270;49.004;12.066;2022-11-13T01:21:13;1.23;;;1.20;;
14373;SDS011;7270;49.004;12.066;2022-11-13T01:23:40;1.40;;;1.30;;
14373;SDS011;7270;49.004;12.066;2022-11-13T01:26:07;1.60;;;1.50;;
14373;SDS011;7270;49.004;12.066;2022-11-13T01:28:36;1.30;;;1.20;;
14373;SDS011;7270;49.004;12.066;2022-11-13T01:31:03;1.50;;;1.40;;
14373;SDS011;7270;49.004;12.066;2022-11-13T01:33:29;1.37;;;1.30;;
14373;SDS011;7270;49.004;12.066;2022-11-13T01:35:58;1.47;;;1.37;;
14373;SDS011;7270;49.004;12.066;2022-11-13T01:38:24;1.50;;;1.40;;
14373;SDS011;7270;49.004;12.066;2022-11-13T01:40:51;1.30;;;1.20;;
14373;SDS011;7270;49.004;12.066;2022-11-13T01:43:19;1.50;;;1.40;;
14373;SDS011;7270;49.004;12.066;2022-11-13T01:46:04;1.17;;;1.17;;
14373;SDS011;7270;49.004;12.066;2022-11-13T01:48:32;1.13;;;1.13;;
14373;SDS011;7270;49.004;12.066;2022-11-13T01:50:59;1.20;;;1.20;;
14373;SDS011;7270;49.004;12.066;2022-11-13T01:53:25;1.23;;;1.20;;
14373;SDS011;7270;49.004;12.066;2022-11-13T01:55:52;1.40;;;1.30;;
14373;SDS011;7270;49.004;12.066;2022-11-13T01:58:19;1.30;;;1.20;;
14373;SDS011;7270;49.004;12.066;2022-11-13T02:00:46;1.30;;;1.20;;
14373;SDS011;7270;49.004;12.066;2022-11-13T02:03:13;1.50;;;1.40;;
14373;SDS011;7270;49.004;12.066;2022-11-13T02:05:39;1.23;;;1.20;;
14373;SDS011;7270;49.004;12.066;2022-11-13T02:08:06;1.27;;;1.20;;
14373;SDS011;7270;49.004;12.066;2022-11-13T02:10:32;1.40;;;1.30;;
14373;SDS011;7270;49.004;12.066;2022-11-13T02:12:59;1.20;;;1.20;;
14373;SDS011;7270;49.004;12.066;2022-11-13T02:15:25;1.10;;;1.10;;
14373;SDS011;7270;49.004;12.066;2022-11-13T02:17:54;1.30;;;1.20;;
14373;SDS011;7270;49.004;12.066;2022-11-13T02:20:24;1.20;;;1.20;;
14373;SDS011;7270;49.004;12.066;2022-11-13T02:22:55;1.10;;;1.10;;
14373;SDS011;7270;49.004;12.066;2022-11-13T02:25:24;1.20;;;1.20;;
14373;SDS011;7270;49.004;12.066;2022-11-13T02:27:51;1.20;;;1.20;;
14373;SDS011;7270;49.004;12.066;2022-11-13T02:30:18;1.20;;;1.20;;
14373;SDS011;7270;49.004;12.066;2022-11-13T02:32:45;1.13;;;1.13;;
14373;SDS011;7270;49.004;12.066;2022-11-13T02:35:11;1.27;;;1.20;;
14373;SDS011;7270;49.004;12.066;2022-11-13T02:37:38;1.10;;;1.10;;
14373;SDS011;7270;49.004;12.066;2022-11-13T02:40:05;1.27;;;1.23;;
14373;SDS011;7270;49.004;12.066;2022-11-13T02:42:33;1.30;;;1.20;;
14373;SDS011;7270;49.004;12.066;2022-11-13T02:44:59;1.30;;;1.20;;
14373;SDS011;7270;49.004;12.066;2022-11-13T02:47:26;1.20;;;1.20;;
14373;SDS011;7270;49.004;12.066;2022-11-13T02:49:53;1.23;;;1.20;;
14373;SDS011;7270;49.004;12.066;2022-11-13T02:52:19;1.20;;;1.20;;
14373;SDS011;7270;49.004;12.066;2022-11-13T02:54:45;1.20;;;1.20;;
14373;SDS011;7270;49.004;12.066;2022-11-13T02:57:12;1.23;;;1.20;;
14373;SDS011;7270;49.004;12.066;2022-11-13T02:59:39;1.30;;;1.20;;
14373;SDS011;7270;49.004;12.066;2022-11-13T03:02:06;1.13;;;1.13;;
14373;SDS011;7270;49.004;12.066;2022-11-13T03:04:32;1.07;;;1.07;;
14373;SDS011;7270;49.004;12.066;2022-11-13T03:06:59;1.10;;;1.10;;
14373;SDS011;7270;49.004;12.066;2022-11-13T03:09:25;1.13;;;1.13;;
14373;SDS011;7270;49.004;12.066;2022-11-13T03:11:52;1.20;;;1.20;;
14373;SDS011;7270;49.004;12.066;2022-11-13T03:14:18;1.10;;;1.10;;
14373;SDS011;7270;49.004;12.066;2022-11-13T03:16:45;1.10;;;1.10;;
14373;SDS011;7270;49.004;12.066;2022-11-13T03:19:12;1.20;;;1.20;;
14373;SDS011;7270;49.004;12.066;2022-11-13T03:21:39;1.10;;;1.10;;
14373;SDS011;7270;49.004;12.066;2022-11-13T03:24:06;1.10;;;1.10;;
14373;SDS011;7270;49.004;12.066;2022-11-13T03:26:32;1.10;;;1.10;;
14373;SDS011;7270;49.004;12.066;2022-11-13T03:28:59;1.10;;;1.10;;
14373;SDS011;7270;49.004;12.066;2022-11-13T03:31:25;1.40;;;1.30;;
14373;SDS011;7270;49.004;12.066;2022-11-13T03:33:54;1.10;;;1.10;;
14373;SDS011;7270;49.004;12.066;2022-11-13T03:36:20;1.20;;;1.20;;
14373;SDS011;7270;49.004;12.066;2022-11-13T03:38:47;1.27;;;1.20;;
14373;SDS011;7270;49.004;12.066;2022-11-13T03:41:13;1.30;;;1.20;;
14373;SDS011;7270;49.004;12.066;2022-11-13T03:43:40;1.20;;;1.20;;
14373;SDS011;7270;49.004;12.066;2022-11-13T03:46:06;1.37;;;1.27;;
14373;SDS011;7270;49.004;12.066;2022-11-13T03:48:33;1.13;;;1.13;;
14373;SDS011;7270;49.004;12.066;2022-11-13T03:51:00;1.00;;;1.00;;
14373;SDS011;7270;49.004;12.066;2022-11-13T03:53:27;1.10;;;1.10;;
14373;SDS011;7270;49.004;12.066;2022-11-13T03:55:53;1.10;;;1.10;;
14373;SDS011;7270;49.004;12.066;2022-11-13T03:58:20;1.10;;;1.10;;
14373;SDS011;7270;49.004;12.066;2022-11-13T04:00:46;1.00;;;1.00;;
14373;SDS011;7270;49.004;12.066;2022-11-13T04:03:13;1.07;;;1.07;;
14373;SDS011;7270;49.004;12.066;2022-11-13T04:05:40;1.10;;;1.10;;
14373;SDS011;7270;49.004;12.066;2022-11-13T04:08:08;1.10;;;1.10;;
14373;SDS011;7270;49.004;12.066;2022-11-13T04:10:34;1.03;;;1.03;;
14373;SDS011;7270;49.004;12.066;2022-11-13T04:13:01;1.00;;;1.00;;
14373;SDS011;7270;49.004;12.066;2022-11-13T04:15:27;1.00;;;1.00;;
14373;SDS011;7270;49.004;12.066;2022-11-13T04:17:53;1.00;;;1.00;;
14373;SDS011;7270;49.004;12.066;2022-11-13T04:20:20;1.10;;;1.10;;
14373;SDS011;7270;49.004;12.066;2022-11-13T04:22:46;1.00;;;1.00;;
14373;SDS011;7270;49.004;12.066;2022-11-13T04:25:14;1.10;;;1.10;;
14373;SDS011;7270;49.004;12.066;2022-11-13T04:27:40;1.00;;;1.00;;
14373;SDS011;7270;49.004;12.066;2022-11-13T04:30:07;1.00;;;1.00;;
14373;SDS011;7270;49.004;12.066;2022-11-13T04:32:34;1.07;;;1.07;;
14373;SDS011;7270;49.004;12.066;2022-11-13T04:35:00;1.00;;;1.00;;
14373;SDS011;7270;49.004;12.066;2022-11-13T04:37:26;1.00;;;1.00;;
14373;SDS011;7270;49.004;12.066;2022-11-13T04:39:53;1.10;;;1.10;;
14373;SDS011;7270;49.004;12.066;2022-11-13T04:42:20;1.10;;;1.10;;
14373;SDS011;7270;49.004;12.066;2022-11-13T04:45:04;1.10;;;1.10;;
14373;SDS011;7270;49.004;12.066;2022-11-13T04:47:31;1.00;;;1.00;;
14373;SDS011;7270;49.004;12.066;2022-11-13T04:49:57;1.00;;;1.00;;
14373;SDS011;7270;49.004;12.066;2022-11-13T04:52:23;0.90;;;0.90;;
14373;SDS011;7270;49.004;12.066;2022-11-13T04:54:50;0.90;;;0.90;;
14373;SDS011;7270;49.004;12.066;2022-11-13T04:57:16;0.90;;;0.90;;
14373;SDS011;7270;49.004;12.066;2022-11-13T04:59:44;1.00;;;1.00;;
14373;SDS011;7270;49.004;12.066;2022-11-13T05:02:10;1.00;;;1.00;;
14373;SDS011;7270;49.004;12.066;2022-11-13T05:04:36;1.10;;;1.10;;
14373;SDS011;7270;49.004;12.066;2022-11-13T05:07:02;1.00;;;1.00;;
14373;SDS011;7270;49.004;12.066;2022-11-13T05:09:29;1.00;;;1.00;;
14373;SDS011;7270;49.004;12.066;2022-11-13T05:11:55;0.90;;;0.90;;
14373;SDS011;7270;49.004;12.066;2022-11-13T05:14:21;1.07;;;1.07;;
14373;SDS011;7270;49.004;12.066;2022-11-13T05:16:49;0.90;;;0.90;;
14373;SDS011;7270;49.004;12.066;2022-11-13T05:19:15;0.90;;;0.90;;
14373;SDS011;7270;49.004;12.066;2022-11-13T05:21:42;0.93;;;0.93;;
14373;SDS011;7270;49.004;12.066;2022-11-13T05:24:11;1.00;;;1.00;;
14373;SDS011;7270;49.004;12.066;2022-11-13T05:26:37;0.90;;;0.90;;
14373;SDS011;7270;49.004;12.066;2022-11-13T05:29:04;1.00;;;1.00;;
14373;SDS011;7270;49.004;12.066;2022-11-13T05:31:30;1.00;;;1.00;;
14373;SDS011;7270;49.004;12.066;2022-11-13T05:33:58;0.90;;;0.90;;
14373;SDS011;7270;49.004;12.066;2022-11-13T05:36:25;0.93;;;0.93;;
14373;SDS011;7270;49.004;12.066;2022-11-13T05:38:51;1.00;;;1.00;;
14373;SDS011;7270;49.004;12.066;2022-11-13T05:41:18;1.00;;;1.00;;
14373;SDS011;7270;49.004;12.066;2022-11-13T05:43:44;1.10;;;1.10;;
14373;SDS011;7270;49.004;12.066;2022-11-13T05:46:11;1.00;;;1.00;;
14373;SDS011;7270;49.004;12.066;2022-11-13T05:48:38;1.00;;;1.00;;
14373;SDS011;7270;49.004;12.066;2022-11-13T05:51:07;1.03;;;1.03;;
14373;SDS011;7270;49.004;12.066;2022-11-13T05:53:34;1.00;;;1.00;;
14373;SDS011;7270;49.004;12.066;2022-11-13T05:56:01;1.00;;;1.00;;
14373;SDS011;7270;49.004;12.066;2022-11-13T05:58:27;1.00;;;1.00;;
14373;SDS011;7270;49.004;12.066;2022-11-13T06:01:02;1.10;;;1.10;;
14373;SDS011;7270;49.004;12.066;2022-11-13T06:03:29;1.10;;;1.10;;
14373;SDS011;7270;49.004;12.066;2022-11-13T06:05:55;1.00;;;1.00;;
14373;SDS011;7270;49.004;12.066;2022-11-13T06:08:24;1.00;;;1.00;;
14373;SDS011;7270;49.004;12.066;2022-11-13T06:10:51;1.10;;;1.10;;
14373;SDS011;7270;49.004;12.066;2022-11-13T06:13:17;1.00;;;1.00;;
14373;SDS011;7270;49.004;12.066;2022-11-13T06:15:43;1.00;;;1.00;;
14373;SDS011;7270;49.004;12.066;2022-11-13T06:18:10;1.00;;;1.00;;
14373;SDS011;7270;49.004;12.066;2022-11-13T06:20:36;0.93;;;0.93;;
14373;SDS011;7270;49.004;12.066;2022-11-13T06:23:02;1.00;;;1.00;;
14373;SDS011;7270;49.004;12.066;2022-11-13T06:25:30;0.90;;;0.90;;
14373;SDS011;7270;49.004;12.066;2022-11-13T06:27:56;1.00;;;1.00;;
14373;SDS011;7270;49.004;12.066;2022-11-13T06:30:22;1.00;;;1.00;;
14373;SDS011;7270;49.004;12.066;2022-11-13T06:32:50;1.00;;;1.00;;
14373;SDS011;7270;49.004;12.066;2022-11-13T06:35:16;1.00;;;1.00;;
14373;SDS011;7270;49.004;12.066;2022-11-13T06:37:46;1.00;;;1.00;;
14373;SDS011;7270;49.004;12.066;2022-11-13T06:40:13;1.00;;;1.00;;
14373;SDS011;7270;49.004;12.066;2022-11-13T06:42:40;1.00;;;1.00;;
14373;SDS011;7270;49.004;12.066;2022-11-13T06:45:07;1.00;;;1.00;;
14373;SDS011;7270;49.004;12.066;2022-11-13T06:47:33;1.00;;;1.00;;
14373;SDS011;7270;49.004;12.066;2022-11-13T06:50:00;1.00;;;1.00;;
14373;SDS011;7270;49.004;12.066;2022-11-13T06:52:26;1.20;;;1.20;;
14373;SDS011;7270;49.004;12.066;2022-11-13T06:54:52;0.90;;;0.90;;
14373;SDS011;7270;49.004;12.066;2022-11-13T06:57:18;1.00;;;1.00;;
14373;SDS011;7270;49.004;12.066;2022-11-13T06:59:46;1.00;;;1.00;;
14373;SDS011;7270;49.004;12.066;2022-11-13T07:02:12;1.07;;;1.07;;
14373;SDS011;7270;49.004;12.066;2022-11-13T07:04:39;1.00;;;1.00;;
14373;SDS011;7270;49.004;12.066;2022-11-13T07:07:05;0.90;;;0.90;;
14373;SDS011;7270;49.004;12.066;2022-11-13T07:09:31;1.00;;;1.00;;
14373;SDS011;7270;49.004;12.066;2022-11-13T07:11:57;1.10;;;1.10;;
14373;SDS011;7270;49.004;12.066;2022-11-13T07:14:24;1.10;;;1.10;;
14373;SDS011;7270;49.004;12.066;2022-11-13T07:16:51;1.10;;;1.10;;
14373;SDS011;7270;49.004;12.066;2022-11-13T07:19:18;1.00;;;1.00;;
14373;SDS011;7270;49.004;12.066;2022-11-13T07:21:44;1.00;;;1.00;;
14373;SDS011;7270;49.004;12.066;2022-11-13T07:24:10;1.07;;;1.07;;
14373;SDS011;7270;49.004;12.066;2022-11-13T07:26:36;1.00;;;1.00;;
14373;SDS011;7270;49.004;12.066;2022-11-13T07:29:03;1.00;;;1.00;;
14373;SDS011;7270;49.004;12.066;2022-11-13T07:31:29;0.93;;;0.93;;
14373;SDS011;7270;49.004;12.066;2022-11-13T07:33:57;0.90;;;0.90;;
14373;SDS011;7270;49.004;12.066;2022-11-13T07:36:23;1.00;;;1.00;;
14373;SDS011;7270;49.004;12.066;2022-11-13T07:38:50;0.93;;;0.93;;
14373;SDS011;7270;49.004;12.066;2022-11-13T07:41:17;0.90;;;0.90;;
14373;SDS011;7270;49.004;12.066;2022-11-13T07:43:43;1.00;;;1.00;;
14373;SDS011;7270;49.004;12.066;2022-11-13T07:46:09;1.10;;;1.10;;
14373;SDS011;7270;49.004;12.066;2022-11-13T07:48:35;1.00;;;1.00;;
14373;SDS011;7270;49.004;12.066;2022-11-13T07:51:03;1.00;;;1.00;;
14373;SDS011;7270;49.004;12.066;2022-11-13T07:53:30;0.90;;;0.90;;
14373;SDS011;7270;49.004;12.066;2022-11-13T07:55:58;1.00;;;1.00;;
14373;SDS011;7270;49.004;12.066;2022-11-13T07:58:25;1.10;;;1.10;;
14373;SDS011;7270;49.004;12.066;2022-11-13T08:00:51;1.00;;;1.00;;
14373;SDS011;7270;49.004;12.066;2022-11-13T08:03:17;1.00;;;1.00;;
14373;SDS011;7270;49.004;12.066;2022-11-13T08:05:43;1.00;;;1.00;;
14373;SDS011;7270;49.004;12.066;2022-11-13T08:08:11;1.00;;;1.00;;
14373;SDS011;7270;49.004;12.066;2022-11-13T08:10:40;1.00;;;1.00;;
14373;SDS011;7270;49.004;12.066;2022-11-13T08:13:07;1.03;;;1.03;;
14373;SDS011;7270;49.004;12.066;2022-11-13T08:15:34;1.00;;;1.00;;
14373;SDS011;7270;49.004;12.066;2022-11-13T08:18:01;1.10;;;1.10;;
14373;SDS011;7270;49.004;12.066;2022-11-13T08:20:28;1.00;;;1.00;;
14373;SDS011;7270;49.004;12.066;2022-11-13T08:22:55;0.93;;;0.93;;
14373;SDS011;7270;49.004;12.066;2022-11-13T08:25:23;1.00;;;1.00;;
14373;SDS011;7270;49.004;12.066;2022-11-13T08:27:50;0.80;;;0.80;;
14373;SDS011;7270;49.004;12.066;2022-11-13T08:30:19;1.00;;;1.00;;
14373;SDS011;7270;49.004;12.066;2022-11-13T08:32:45;0.93;;;0.93;;
14373;SDS011;7270;49.004;12.066;2022-11-13T08:35:12;1.00;;;1.00;;
14373;SDS011;7270;49.004;12.066;2022-11-13T08:37:38;1.00;;;1.00;;
14373;SDS011;7270;49.004;12.066;2022-11-13T08:40:05;0.90;;;0.90;;
14373;SDS011;7270;49.004;12.066;2022-11-13T08:42:33;1.00;;;1.00;;
14373;SDS011;7270;49.004;12.066;2022-11-13T08:44:59;1.00;;;1.00;;
14373;SDS011;7270;49.004;12.066;2022-11-13T08:47:25;0.90;;;0.90;;
14373;SDS011;7270;49.004;12.066;2022-11-13T08:49:53;1.00;;;1.00;;
14373;SDS011;7270;49.004;12.066;2022-11-13T08:52:19;1.00;;;1.00;;
14373;SDS011;7270;49.004;12.066;2022-11-13T08:54:46;1.10;;;1.10;;
14373;SDS011;7270;49.004;12.066;2022-11-13T08:57:12;0.90;;;0.90;;
14373;SDS011;7270;49.004;12.066;2022-11-13T08:59:40;1.00;;;1.00;;
14373;SDS011;7270;49.004;12.066;2022-11-13T09:02:06;0.90;;;0.90;;
14373;SDS011;7270;49.004;12.066;2022-11-13T09:04:33;0.93;;;0.93;;
14373;SDS011;7270;49.004;12.066;2022-11-13T09:06:59;1.03;;;1.03;;
14373;SDS011;7270;49.004;12.066;2022-11-13T09:09:25;0.90;;;0.90;;
14373;SDS011;7270;49.004;12.066;2022-11-13T09:11:51;0.90;;;0.90;;
14373;SDS011;7270;49.004;12.066;2022-11-13T09:14:18;1.00;;;1.00;;
14373;SDS011;7270;49.004;12.066;2022-11-13T09:16:45;0.90;;;0.90;;
14373;SDS011;7270;49.004;12.066;2022-11-13T09:19:12;1.00;;;1.00;;
14373;SDS011;7270;49.004;12.066;2022-11-13T09:21:41;1.00;;;1.00;;
14373;SDS011;7270;49.004;12.066;2022-11-13T09:24:07;1.00;;;1.00;;
14373;SDS011;7270;49.004;12.066;2022-11-13T09:26:34;1.00;;;1.00;;
14373;SDS011;7270;49.004;12.066;2022-11-13T09:29:00;1.00;;;1.00;;
14373;SDS011;7270;49.004;12.066;2022-11-13T09:31:26;1.00;;;1.00;;
14373;SDS011;7270;49.004;12.066;2022-11-13T09:33:54;0.90;;;0.90;;
14373;SDS011;7270;49.004;12.066;2022-11-13T09:36:20;1.00;;;1.00;;
14373;SDS011;7270;49.004;12.066;2022-11-13T09:38:46;1.10;;;1.10;;
14373;SDS011;7270;49.004;12.066;2022-11-13T09:41:14;1.10;;;1.10;;
14373;SDS011;7270;49.004;12.066;2022-11-13T09:43:43;1.00;;;1.00;;
14373;SDS011;7270;49.004;12.066;2022-11-13T09:46:11;1.00;;;1.00;;
14373;SDS011;7270;49.004;12.066;2022-11-13T09:48:41;1.00;;;1.00;;
14373;SDS011;7270;49.004;12.066;2022-11-13T09:51:13;1.00;;;1.00;;
14373;SDS011;7270;49.004;12.066;2022-11-13T09:53:40;1.07;;;1.07;;
14373;SDS011;7270;49.004;12.066;2022-11-13T09:56:10;1.00;;;1.00;;
14373;SDS011;7270;49.004;12.066;2022-11-13T09:58:43;1.00;;;1.00;;
14373;SDS011;7270;49.004;12.066;2022-11-13T10:01:12;0.90;;;0.90;;
14373;SDS011;7270;49.004;12.066;2022-11-13T10:03:42;1.00;;;1.00;;
14373;SDS011;7270;49.004;12.066;2022-11-13T10:06:13;0.90;;;0.90;;
14373;SDS011;7270;49.004;12.066;2022-11-13T10:08:45;1.07;;;1.07;;
14373;SDS011;7270;49.004;12.066;2022-11-13T10:11:13;1.00;;;1.00;;
14373;SDS011;7270;49.004;12.066;2022-11-13T10:13:42;0.90;;;0.90;;
14373;SDS011;7270;49.004;12.066;2022-11-13T10:16:12;1.00;;;1.00;;
14373;SDS011;7270;49.004;12.066;2022-11-13T10:18:40;1.00;;;1.00;;
14373;SDS011;7270;49.004;12.066;2022-11-13T10:21:08;0.93;;;0.93;;
14373;SDS011;7270;49.004;12.066;2022-11-13T10:23:38;1.10;;;1.10;;
14373;SDS011;7270;49.004;12.066;2022-11-13T10:26:10;1.00;;;1.00;;
14373;SDS011;7270;49.004;12.066;2022-11-13T10:28:37;1.00;;;1.00;;
14373;SDS011;7270;49.004;12.066;2022-11-13T10:31:04;1.10;;;1.10;;
14373;SDS011;7270;49.004;12.066;2022-11-13T10:33:31;1.10;;;1.10;;
14373;SDS011;7270;49.004;12.066;2022-11-13T10:35:58;0.90;;;0.90;;
14373;SDS011;7270;49.004;12.066;2022-11-13T10:38:30;1.00;;;1.00;;
14373;SDS011;7270;49.004;12.066;2022-11-13T10:41:06;1.10;;;1.10;;
14373;SDS011;7270;49.004;12.066;2022-11-13T10:43:32;1.00;;;1.00;;
14373;SDS011;7270;49.004;12.066;2022-11-13T10:45:59;0.90;;;0.90;;
14373;SDS011;7270;49.004;12.066;2022-11-13T10:48:27;0.90;;;0.90;;
14373;SDS011;7270;49.004;12.066;2022-11-13T10:50:54;1.00;;;1.00;;
14373;SDS011;7270;49.004;12.066;2022-11-13T10:53:21;1.00;;;1.00;;
14373;SDS011;7270;49.004;12.066;2022-11-13T10:55:49;0.90;;;0.90;;
14373;SDS011;7270;49.004;12.066;2022-11-13T10:58:18;0.90;;;0.90;;
14373;SDS011;7270;49.004;12.066;2022-11-13T11:00:45;1.00;;;1.00;;
14373;SDS011;7270;49.004;12.066;2022-11-13T11:03:14;0.90;;;0.90;;
14373;SDS011;7270;49.004;12.066;2022-11-13T11:05:50;0.90;;;0.90;;
14373;SDS011;7270;49.004;12.066;2022-11-13T11:08:16;1.00;;;1.00;;
14373;SDS011;7270;49.004;12.066;2022-11-13T11:10:52;0.90;;;0.90;;
14373;SDS011;7270;49.004;12.066;2022-11-13T11:13:33;0.90;;;0.90;;
14373;SDS011;7270;49.004;12.066;2022-11-13T11:16:01;0.90;;;0.90;;
14373;SDS011;7270;49.004;12.066;2022-11-13T11:18:29;1.00;;;1.00;;
14373;SDS011;7270;49.004;12.066;2022-11-13T11:20:57;0.90;;;0.90;;
14373;SDS011;7270;49.004;12.066;2022-11-13T11:23:26;1.00;;;1.00;;
14373;SDS011;7270;49.004;12.066;2022-11-13T11:25:54;1.00;;;1.00;;
14373;SDS011;7270;49.004;12.066;2022-11-13T11:28:26;1.00;;;1.00;;
14373;SDS011;7270;49.004;12.066;2022-11-13T11:30:57;0.90;;;0.90;;
14373;SDS011;7270;49.004;12.066;2022-11-13T11:33:26;1.00;;;1.00;;
14373;SDS011;7270;49.004;12.066;2022-11-13T11:35:56;1.00;;;1.00;;
14373;SDS011;7270;49.004;12.066;2022-11-13T11:38:25;1.00;;;1.00;;
14373;SDS011;7270;49.004;12.066;2022-11-13T11:40:58;0.90;;;0.90;;
14373;SDS011;7270;49.004;12.066;2022-11-13T11:43:31;1.00;;;1.00;;
14373;SDS011;7270;49.004;12.066;2022-11-13T11:46:00;0.90;;;0.90;;
14373;SDS011;7270;49.004;12.066;2022-11-13T11:48:27;0.93;;;0.93;;
14373;SDS011;7270;49.004;12.066;2022-11-13T11:50:56;1.00;;;1.00;;
14373;SDS011;7270;49.004;12.066;2022-11-13T11:53:27;0.90;;;0.90;;
14373;SDS011;7270;49.004;12.066;2022-11-13T11:56:05;0.90;;;0.90;;
14373;SDS011;7270;49.004;12.066;2022-11-13T11:58:37;0.90;;;0.90;;
14373;SDS011;7270;49.004;12.066;2022-11-13T12:01:11;0.90;;;0.90;;
14373;SDS011;7270;49.004;12.066;2022-11-13T12:03:47;0.90;;;0.90;;
14373;SDS011;7270;49.004;12.066;2022-11-13T12:06:21;1.00;;;1.00;;
14373;SDS011;7270;49.004;12.066;2022-11-13T12:08:50;1.00;;;1.00;;
14373;SDS011;7270;49.004;12.066;2022-11-13T12:11:22;1.00;;;1.00;;
14373;SDS011;7270;49.004;12.066;2022-11-13T12:13:50;1.00;;;1.00;;
14373;SDS011;7270;49.004;12.066;2022-11-13T12:16:24;1.00;;;1.00;;
14373;SDS011;7270;49.004;12.066;2022-11-13T12:18:54;1.00;;;1.00;;
14373;SDS011;7270;49.004;12.066;2022-11-13T12:21:23;1.00;;;1.00;;
14373;SDS011;7270;49.004;12.066;2022-11-13T12:24:00;1.00;;;1.00;;
14373;SDS011;7270;49.004;12.066;2022-11-13T12:26:29;1.03;;;1.03;;
14373;SDS011;7270;49.004;12.066;2022-11-13T12:29:01;1.00;;;1.00;;
14373;SDS011;7270;49.004;12.066;2022-11-13T12:31:35;1.00;;;1.00;;
14373;SDS011;7270;49.004;12.066;2022-11-13T12:34:06;1.00;;;1.00;;
14373;SDS011;7270;49.004;12.066;2022-11-13T12:36:33;0.80;;;0.80;;
14373;SDS011;7270;49.004;12.066;2022-11-13T12:39:01;1.10;;;1.10;;
14373;SDS011;7270;49.004;12.066;2022-11-13T12:41:31;0.90;;;0.90;;
14373;SDS011;7270;49.004;12.066;2022-11-13T12:44:19;1.00;;;1.00;;
14373;SDS011;7270;49.004;12.066;2022-11-13T12:46:47;1.00;;;1.00;;
14373;SDS011;7270;49.004;12.066;2022-11-13T12:49:24;0.93;;;0.93;;
14373;SDS011;7270;49.004;12.066;2022-11-13T12:51:55;0.97;;;0.97;;
14373;SDS011;7270;49.004;12.066;2022-11-13T12:54:25;0.90;;;0.90;;
14373;SDS011;7270;49.004;12.066;2022-11-13T12:56:51;1.00;;;1.00;;
14373;SDS011;7270;49.004;12.066;2022-11-13T12:59:27;1.00;;;1.00;;
14373;SDS011;7270;49.004;12.066;2022-11-13T13:01:58;0.90;;;0.90;;
14373;SDS011;7270;49.004;12.066;2022-11-13T13:04:28;1.00;;;1.00;;
14373;SDS011;7270;49.004;12.066;2022-11-13T13:07:00;0.90;;;0.90;;
14373;SDS011;7270;49.004;12.066;2022-11-13T13:09:33;1.03;;;1.03;;
14373;SDS011;7270;49.004;12.066;2022-11-13T13:12:04;1.00;;;1.00;;
14373;SDS011;7270;49.004;12.066;2022-11-13T13:14:35;0.90;;;0.90;;
14373;SDS011;7270;49.004;12.066;2022-11-13T13:17:05;1.10;;;1.10;;
14373;SDS011;7270;49.004;12.066;2022-11-13T13:19:32;1.07;;;1.07;;
14373;SDS011;7270;49.004;12.066;2022-11-13T13:21:58;1.00;;;1.00;;
14373;SDS011;7270;49.004;12.066;2022-11-13T13:24:29;0.90;;;0.90;;
14373;SDS011;7270;49.004;12.066;2022-11-13T13:26:55;0.90;;;0.90;;
14373;SDS011;7270;49.004;12.066;2022-11-13T13:29:22;1.00;;;1.00;;
14373;SDS011;7270;49.004;12.066;2022-11-13T13:31:50;0.90;;;0.90;;
14373;SDS011;7270;49.004;12.066;2022-11-13T13:34:22;1.00;;;1.00;;
14373;SDS011;7270;49.004;12.066;2022-11-13T13:36:51;1.00;;;1.00;;
14373;SDS011;7270;49.004;12.066;2022-11-13T13:39:22;1.00;;;1.00;;
14373;SDS011;7270;49.004;12.066;2022-11-13T13:41:56;1.00;;;1.00;;
14373;SDS011;7270;49.004;12.066;2022-11-13T13:44:31;0.90;;;0.90;;
14373;SDS011;7270;49.004;12.066;2022-11-13T13:47:08;0.90;;;0.90;;
14373;SDS011;7270;49.004;12.066;2022-11-13T13:49:36;0.90;;;0.90;;
14373;SDS011;7270;49.004;12.066;2022-11-13T13:52:03;0.90;;;0.90;;
14373;SDS011;7270;49.004;12.066;2022-11-13T13:54:30;1.00;;;1.00;;
14373;SDS011;7270;49.004;12.066;2022-11-13T13:56:57;0.90;;;0.90;;
14373;SDS011;7270;49.004;12.066;2022-11-13T13:59:25;1.00;;;1.00;;
14373;SDS011;7270;49.004;12.066;2022-11-13T14:01:54;1.00;;;1.00;;
14373;SDS011;7270;49.004;12.066;2022-11-13T14:04:22;1.00;;;1.00;;
14373;SDS011;7270;49.004;12.066;2022-11-13T14:06:50;1.00;;;1.00;;
14373;SDS011;7270;49.004;12.066;2022-11-13T14:09:19;1.10;;;1.10;;
14373;SDS011;7270;49.004;12.066;2022-11-13T14:11:45;1.00;;;1.00;;
14373;SDS011;7270;49.004;12.066;2022-11-13T14:14:15;1.00;;;1.00;;
14373;SDS011;7270;49.004;12.066;2022-11-13T14:16:45;1.00;;;1.00;;
14373;SDS011;7270;49.004;12.066;2022-11-13T14:19:12;0.90;;;0.90;;
14373;SDS011;7270;49.004;12.066;2022-11-13T14:21:38;1.00;;;1.00;;
14373;SDS011;7270;49.004;12.066;2022-11-13T14:24:07;1.00;;;1.00;;
14373;SDS011;7270;49.004;12.066;2022-11-13T14:26:35;1.00;;;1.00;;
14373;SDS011;7270;49.004;12.066;2022-11-13T14:29:04;0.90;;;0.90;;
14373;SDS011;7270;49.004;12.066;2022-11-13T14:31:34;1.00;;;1.00;;
14373;SDS011;7270;49.004;12.066;2022-11-13T14:34:01;0.90;;;0.90;;
14373;SDS011;7270;49.004;12.066;2022-11-13T14:36:32;1.00;;;1.00;;
14373;SDS011;7270;49.004;12.066;2022-11-13T14:38:59;1.10;;;1.10;;
14373;SDS011;7270;49.004;12.066;2022-11-13T14:41:37;1.10;;;1.10;;
14373;SDS011;7270;49.004;12.066;2022-11-13T14:44:05;1.00;;;1.00;;
14373;SDS011;7270;49.004;12.066;2022-11-13T14:46:33;1.00;;;1.00;;
14373;SDS011;7270;49.004;12.066;2022-11-13T14:49:00;1.00;;;1.00;;
14373;SDS011;7270;49.004;12.066;2022-11-13T14:51:27;1.00;;;1.00;;